Time;durP1;ratioP1;P1;durP2;ratioP2;P2;SDS_P1;SDS_P2;PMS_P1;PMS_P2;Temp;Humidity;BMP_temperature;BMP_pressure;BME280_temperature;BME280_humidity;BME280_pressure;Samples;Min_cycle;Max_cycle;Signal;HPM_P1;HPM_P2
2021/12/09 00:01:38;;;;;;;14.27;6.85;;;;;;;0.65;100.00;100517.34;10541532;28;20048;-58
2021/12/09 00:06:43;;;;;;;17.35;6.45;;;;;;;0.59;100.00;100514.03;10541622;28;20048;-54
2021/12/09 00:11:47;;;;;;;11.45;6.80;;;;;;;0.45;100.00;100516.91;10541118;28;20052;-56
2021/12/09 00:16:52;;;;;;;11.43;6.95;;;;;;;0.67;100.00;100517.31;10540616;28;20048;-57
2021/12/09 00:21:56;;;;;;;14.68;7.53;;;;;;;0.72;100.00;100521.50;10540658;28;20048;-53
2021/12/09 00:26:58;;;;;;;14.90;7.18;;;;;;;0.70;100.00;100510.34;10541121;28;20105;-55
2021/12/09 00:32:01;;;;;;;14.65;6.80;;;;;;;1.23;100.00;100527.28;10540177;28;20047;-55
2021/12/09 00:42:19;;;;;;;24.55;6.70;;;;;;;0.97;100.00;100522.69;10540102;28;20399;-56
2021/12/09 00:47:22;;;;;;;16.45;6.55;;;;;;;0.88;100.00;100514.28;10540601;28;20040;-56
2021/12/09 00:52:26;;;;;;;13.38;7.10;;;;;;;1.26;100.00;100519.44;10538637;28;20048;-53
2021/12/09 00:57:29;;;;;;;17.20;7.25;;;;;;;1.08;100.00;100523.31;10538774;28;20051;-53
2021/12/09 01:02:31;;;;;;;16.10;7.65;;;;;;;0.83;100.00;100520.44;10539406;28;20059;-56
2021/12/09 01:07:34;;;;;;;12.88;8.15;;;;;;;0.66;100.00;100515.63;10539529;28;20044;-57
2021/12/09 01:12:36;;;;;;;15.52;7.30;;;;;;;0.58;100.00;100520.09;10539473;28;20070;-54
2021/12/09 01:17:39;;;;;;;14.77;6.72;;;;;;;0.74;100.00;100530.06;10521525;28;20052;-56
2021/12/09 01:22:43;;;;;;;15.27;7.38;;;;;;;0.82;100.00;100529.03;10539006;28;20510;-55
2021/12/09 01:27:47;;;;;;;17.63;6.90;;;;;;;0.59;100.00;100538.09;10545510;28;20055;-57
2021/12/09 01:32:53;;;;;;;11.55;6.57;;;;;;;0.48;100.00;100534.88;10547426;28;20059;-53
2021/12/09 01:37:59;;;;;;;15.02;7.03;;;;;;;0.51;100.00;100537.41;10547719;28;20059;-57
2021/12/09 01:43:02;;;;;;;14.07;7.25;;;;;;;0.57;100.00;100544.16;10547223;28;20110;-56
2021/12/09 01:48:05;;;;;;;12.20;7.78;;;;;;;0.57;100.00;100554.44;10546480;28;20059;-53
2021/12/09 01:53:08;;;;;;;22.02;7.20;;;;;;;0.59;100.00;100550.97;10546572;28;20044;-52
2021/12/09 01:58:11;;;;;;;21.73;8.35;;;;;;;0.28;100.00;100536.09;10546508;28;20050;-55
2021/12/09 02:03:13;;;;;;;13.27;6.50;;;;;;;0.52;100.00;100546.81;10545955;28;20044;-58
2021/12/09 02:08:17;;;;;;;12.35;6.28;;;;;;;0.48;100.00;100546.03;10546259;28;20071;-55
2021/12/09 02:13:20;;;;;;;15.07;7.30;;;;;;;0.52;100.00;100560.56;10544463;28;20052;-55
2021/12/09 02:18:23;;;;;;;16.85;7.13;;;;;;;0.45;100.00;100550.41;10545943;28;20044;-54
2021/12/09 02:23:26;;;;;;;19.67;7.57;;;;;;;0.35;100.00;100547.13;10544584;28;20056;-55
2021/12/09 02:28:28;;;;;;;13.48;7.50;;;;;;;0.31;100.00;100538.63;10545642;28;20040;-57
2021/12/09 02:33:31;;;;;;;17.98;7.80;;;;;;;0.28;100.00;100535.28;10545013;28;20055;-57
2021/12/09 02:38:41;;;;;;;20.15;8.27;;;;;;;0.17;100.00;100531.19;10544310;28;20078;-56
2021/12/09 02:43:47;;;;;;;15.80;7.70;;;;;;;0.12;100.00;100527.84;10544676;28;20055;-56
2021/12/09 02:48:50;;;;;;;16.10;8.10;;;;;;;0.13;100.00;100542.38;10544933;28;20040;-58
2021/12/09 02:53:53;;;;;;;19.73;8.23;;;;;;;-0.05;100.00;100538.44;10544198;28;20044;-55
2021/12/09 02:58:55;;;;;;;15.60;8.57;;;;;;;-0.03;100.00;100535.84;10544858;28;20055;-55
2021/12/09 03:04:00;;;;;;;15.48;8.15;;;;;;;-0.06;100.00;100536.72;10543523;28;20051;-54
2021/12/09 03:09:18;;;;;;;17.52;7.82;;;;;;;0.04;100.00;100550.28;10544029;28;20055;-54
2021/12/09 03:14:24;;;;;;;24.80;9.18;;;;;;;-0.13;100.00;100548.03;10543451;28;20051;-53
2021/12/09 03:19:26;;;;;;;14.30;7.57;;;;;;;0.06;100.00;100556.25;10543401;28;20056;-55
2021/12/09 03:24:29;;;;;;;17.40;8.65;;;;;;;-0.31;100.00;100559.47;10543013;28;20048;-55
2021/12/09 03:29:31;;;;;;;23.17;8.73;;;;;;;-0.22;100.00;100561.91;10542814;28;20063;-54
2021/12/09 03:34:35;;;;;;;19.13;8.30;;;;;;;-0.53;100.00;100560.69;10542709;28;20075;-56
2021/12/09 03:39:39;;;;;;;16.35;7.68;;;;;;;-0.21;100.00;100568.72;10542708;28;20060;-56
2021/12/09 03:44:43;;;;;;;19.73;9.45;;;;;;;-0.30;100.00;100560.31;10542012;28;20048;-56
2021/12/09 03:49:46;;;;;;;15.95;8.30;;;;;;;-0.32;100.00;100562.94;10542005;28;20058;-54
2021/12/09 03:54:48;;;;;;;15.80;9.55;;;;;;;-0.32;100.00;100565.50;10541646;28;20048;-58
2021/12/09 03:59:51;;;;;;;22.90;8.52;;;;;;;-0.61;100.00;100565.94;10542216;28;20162;-54
2021/12/09 04:04:53;;;;;;;15.75;6.80;;;;;;;-0.59;100.00;100570.19;10541145;28;20062;-57
2021/12/09 04:09:56;;;;;;;17.17;8.90;;;;;;;-0.72;100.00;100562.66;10541956;28;20074;-53
2021/12/09 04:14:58;;;;;;;13.00;6.75;;;;;;;-0.52;100.00;100567.50;10539980;28;20055;-56
2021/12/09 04:20:01;;;;;;;17.92;6.40;;;;;;;-0.49;100.00;100560.59;10541067;28;20048;-54
2021/12/09 04:25:05;;;;;;;18.58;6.90;;;;;;;-0.58;100.00;100553.03;10540598;28;20044;-55
2021/12/09 04:30:07;;;;;;;15.85;7.15;;;;;;;-0.54;100.00;100564.97;10540611;28;20048;-53
2021/12/09 04:35:11;;;;;;;17.02;7.72;;;;;;;-0.44;100.00;100558.81;10540664;28;20099;-57
2021/12/09 04:40:14;;;;;;;21.65;8.73;;;;;;;-0.39;100.00;100567.31;10540374;28;20492;-53
2021/12/09 04:45:17;;;;;;;15.82;6.47;;;;;;;-0.36;100.00;100576.69;10540215;28;20048;-55
2021/12/09 04:50:19;;;;;;;17.15;8.43;;;;;;;-0.41;100.00;100581.06;10539934;28;20055;-56
2021/12/09 04:55:22;;;;;;;9.10;5.43;;;;;;;-0.15;100.00;100601.25;10539943;28;20048;-56
2021/12/09 05:00:27;;;;;;;19.80;7.22;;;;;;;-0.47;100.00;100583.72;10539521;28;20052;-57
2021/12/09 05:05:37;;;;;;;19.27;6.82;;;;;;;-0.36;100.00;100574.13;10539472;28;20131;-53
2021/12/09 05:15:57;;;;;;;18.10;6.72;;;;;;;0.00;100.00;100587.28;10538545;28;20051;-59
2021/12/09 05:21:01;;;;;;;11.57;5.22;;;;;;;-0.04;100.00;100591.59;10539358;28;20102;-57
2021/12/09 05:26:04;;;;;;;9.38;6.07;;;;;;;-0.27;100.00;100581.72;10539399;28;20052;-57
2021/12/09 05:36:28;;;;;;;7.55;4.90;;;;;;;0.44;100.00;100605.34;10539165;28;20134;-57
2021/12/09 05:41:31;;;;;;;13.70;5.43;;;;;;;0.28;100.00;100605.63;10539609;28;20048;-54
2021/12/09 05:46:36;;;;;;;8.70;4.47;;;;;;;0.27;100.00;100606.53;10538789;28;20040;-54
2021/12/09 05:51:40;;;;;;;11.23;5.15;;;;;;;0.09;100.00;100609.44;10538162;28;20040;-58
2021/12/09 05:56:43;;;;;;;12.07;5.57;;;;;;;0.04;100.00;100608.66;10539215;28;20048;-54
2021/12/09 06:01:45;;;;;;;14.10;5.88;;;;;;;0.13;100.00;100621.34;10538548;28;20048;-57
2021/12/09 06:06:48;;;;;;;11.00;5.63;;;;;;;0.22;100.00;100620.34;10538726;28;20048;-58
2021/12/09 06:11:51;;;;;;;9.57;5.03;;;;;;;0.15;100.00;100612.75;10539138;28;20059;-56
2021/12/09 06:16:53;;;;;;;19.92;5.32;;;;;;;0.21;100.00;100628.97;10546568;28;20131;-55
2021/12/09 06:21:56;;;;;;;11.50;4.45;;;;;;;0.26;100.00;100625.44;10545370;28;20415;-54
2021/12/09 06:26:59;;;;;;;15.05;4.03;;;;;;;0.14;100.00;100635.94;10545336;28;20411;-56
2021/12/09 06:32:02;;;;;;;14.82;5.40;;;;;;;0.27;100.00;100642.59;10545118;28;20051;-56
2021/12/09 06:37:04;;;;;;;13.82;4.45;;;;;;;0.11;100.00;100638.56;10544796;28;20052;-58
2021/12/09 06:42:07;;;;;;;10.77;5.40;;;;;;;-0.06;100.00;100639.69;10544450;28;20054;-56
2021/12/09 06:47:10;;;;;;;20.27;5.85;;;;;;;-0.07;100.00;100639.72;10544517;28;20506;-56
2021/12/09 06:52:14;;;;;;;12.00;4.93;;;;;;;-0.09;100.00;100641.47;10544427;28;20127;-57
2021/12/09 06:57:16;;;;;;;18.13;6.35;;;;;;;-0.25;100.00;100646.84;10544211;28;20404;-54
2021/12/09 07:02:19;;;;;;;14.30;5.22;;;;;;;-0.13;100.00;100655.25;10543850;28;20050;-55
2021/12/09 07:07:21;;;;;;;10.75;4.63;;;;;;;-0.29;100.00;100641.78;10543838;28;20074;-58
2021/12/09 07:12:24;;;;;;;10.38;4.70;;;;;;;-0.27;100.00;100633.16;10543568;28;20051;-57
2021/12/09 07:17:26;;;;;;;14.35;5.50;;;;;;;-0.16;100.00;100643.28;10543596;28;20059;-59
2021/12/09 07:22:28;;;;;;;17.08;6.28;;;;;;;-0.27;100.00;100640.88;10542837;28;20051;-56
2021/12/09 07:27:31;;;;;;;13.57;5.55;;;;;;;-0.34;100.00;100644.41;10543699;28;20048;-58
2021/12/09 07:32:33;;;;;;;13.02;5.07;;;;;;;-0.21;100.00;100663.09;10542835;28;20044;-54
2021/12/09 07:37:38;;;;;;;13.55;5.15;;;;;;;-0.29;100.00;100660.63;10541503;28;20052;-54
2021/12/09 07:42:40;;;;;;;16.70;7.25;;;;;;;-0.38;100.00;100659.03;10542310;28;20510;-58
2021/12/09 07:47:43;;;;;;;12.13;6.97;;;;;;;-0.34;100.00;100667.56;10542034;28;20055;-53
2021/12/09 07:52:48;;;;;;;16.45;7.15;;;;;;;-0.32;100.00;100670.09;10542442;28;20048;-57
2021/12/09 07:57:51;;;;;;;12.75;5.93;;;;;;;-0.27;100.00;100674.34;10540976;28;20052;-58
2021/12/09 08:02:54;;;;;;;15.90;6.97;;;;;;;0.07;100.00;100678.09;10541628;28;20047;-55
2021/12/09 08:07:57;;;;;;;19.20;6.15;;;;;;;-0.04;100.00;100663.66;10541757;28;20067;-57
2021/12/09 08:13:00;;;;;;;13.68;5.82;;;;;;;0.00;100.00;100672.22;10541097;28;20040;-55
2021/12/09 08:23:22;;;;;;;16.90;6.10;;;;;;;-0.05;100.00;100681.72;10539686;28;20047;-54
2021/12/09 08:28:25;;;;;;;18.27;6.30;;;;;;;0.28;100.00;100674.34;10541009;28;20044;-59
2021/12/09 08:33:28;;;;;;;10.30;6.22;;;;;;;0.20;100.00;100673.59;10540322;28;20050;-55
2021/12/09 08:38:30;;;;;;;15.70;6.72;;;;;;;0.57;100.00;100685.84;10540554;28;20044;-58
2021/12/09 08:43:33;;;;;;;14.70;7.03;;;;;;;0.57;100.00;100678.13;10540019;28;20408;-57
2021/12/09 08:48:37;;;;;;;12.70;5.95;;;;;;;0.73;100.00;100689.84;10540399;28;20104;-55
2021/12/09 08:53:39;;;;;;;25.05;7.25;;;;;;;0.73;100.00;100688.13;10539790;28;20048;-57
2021/12/09 08:58:42;;;;;;;13.15;6.68;;;;;;;0.99;100.00;100707.41;10540012;28;20127;-58
2021/12/09 09:03:45;;;;;;;13.52;5.32;;;;;;;1.24;100.00;100715.50;10539583;28;20044;-55
2021/12/09 09:08:50;;;;;;;17.90;6.85;;;;;;;1.64;100.00;100726.72;10539592;28;20498;-59
2021/12/09 09:13:53;;;;;;;11.82;7.10;;;;;;;1.35;100.00;100722.19;10539187;28;20484;-56
2021/12/09 09:18:57;;;;;;;16.90;6.40;;;;;;;1.36;100.00;100724.75;10539922;28;20052;-55
2021/12/09 09:24:00;;;;;;;11.30;5.68;;;;;;;1.44;100.00;100727.16;10538918;28;20480;-58
2021/12/09 09:29:03;;;;;;;16.58;6.60;;;;;;;1.53;100.00;100732.13;10539931;28;20056;-57
2021/12/09 09:34:06;;;;;;;15.75;6.32;;;;;;;1.84;100.00;100744.38;10539188;28;20048;-54
2021/12/09 09:39:17;;;;;;;11.07;5.43;;;;;;;1.72;100.00;100732.59;10538798;28;20055;-56
2021/12/09 09:44:23;;;;;;;22.50;7.43;;;;;;;1.89;100.00;100741.69;10538923;28;20048;-56
2021/12/09 09:49:25;;;;;;;9.57;5.93;;;;;;;2.16;100.00;100742.78;10544817;28;20126;-57
2021/12/09 09:54:28;;;;;;;17.13;7.07;;;;;;;2.15;100.00;100734.19;10528841;28;20056;-56
2021/12/09 09:59:31;;;;;;;15.77;6.78;;;;;;;2.17;100.00;100735.00;10547125;28;20048;-57
2021/12/09 10:04:44;;;;;;;9.13;5.28;;;;;;;2.47;100.00;100734.28;10545965;28;20380;-58
2021/12/09 10:09:47;;;;;;;11.75;7.20;;;;;;;2.62;100.00;100733.91;10546259;28;20044;-58
2021/12/09 10:14:53;;;;;;;11.68;6.70;;;;;;;2.44;100.00;100734.38;10545853;28;20052;-57
2021/12/09 10:20:04;;;;;;;12.57;6.45;;;;;;;2.71;100.00;100731.09;10545795;28;20040;-55
2021/12/09 10:25:22;;;;;;;14.38;7.05;;;;;;;2.73;100.00;100731.06;10544839;28;20048;-54
2021/12/09 10:30:25;;;;;;;10.43;6.75;;;;;;;2.77;100.00;100715.44;10544249;28;20044;-54
2021/12/09 10:35:27;;;;;;;18.60;8.02;;;;;;;2.69;100.00;100714.78;10545222;28;20044;-55
2021/12/09 10:40:30;;;;;;;11.40;7.25;;;;;;;3.00;100.00;100731.22;10544727;28;20500;-53
2021/12/09 10:45:38;;;;;;;23.70;10.20;;;;;;;2.72;100.00;100716.44;10545026;28;20135;-57
2021/12/09 10:51:07;;;;;;;18.52;9.93;;;;;;;2.90;100.00;100725.44;10544473;28;20044;-56
2021/12/09 10:56:11;;;;;;;12.93;7.95;;;;;;;2.75;100.00;100724.09;10544249;28;20488;-57
2021/12/09 11:01:18;;;;;;;14.27;7.18;;;;;;;2.77;100.00;100714.56;10543457;28;20437;-57
2021/12/09 11:06:38;;;;;;;17.52;8.55;;;;;;;2.99;100.00;100720.00;10543275;28;20136;-54
2021/12/09 11:11:47;;;;;;;21.80;9.80;;;;;;;2.88;100.00;100709.97;10543616;28;20055;-54
2021/12/09 11:17:02;;;;;;;22.15;9.52;;;;;;;3.04;100.00;100706.97;10543861;28;20051;-58
2021/12/09 11:22:08;;;;;;;17.38;9.45;;;;;;;3.10;100.00;100709.38;10543204;28;20054;-55
2021/12/09 11:27:13;;;;;;;16.15;9.60;;;;;;;3.05;100.00;100701.75;10543602;28;20040;-55
2021/12/09 11:38:18;;;;;;;13.70;8.48;;;;;;;3.26;100.00;100692.53;10542346;28;20534;-56
2021/12/09 11:43:10;;;;;;;12.02;8.30;;;;;;;3.33;100.00;100699.22;10542246;28;20090;-56
2021/12/09 11:48:13;;;;;;;16.40;9.65;;;;;;;3.35;100.00;100697.44;10542122;28;20380;-57
2021/12/09 11:53:19;;;;;;;13.70;7.72;;;;;;;3.31;100.00;100693.25;10540757;28;20044;-56
2021/12/09 11:58:29;;;;;;;17.45;8.50;;;;;;;3.44;100.00;100683.38;10542001;28;20051;-55
2021/12/09 12:14:42;;;;;;;25.90;8.90;;;;;;;3.28;100.00;100675.22;10497429;28;20422;-58
2021/12/09 12:19:58;;;;;;;12.63;7.45;;;;;;;3.22;100.00;100669.38;10499607;28;20051;-56
2021/12/09 12:25:09;;;;;;;13.15;8.40;;;;;;;3.46;100.00;100675.56;10498968;28;20435;-62
2021/12/09 12:40:35;;;;;;;13.63;7.78;;;;;;;3.71;100.00;100717.09;10539100;28;20056;-55
2021/12/09 12:45:52;;;;;;;17.42;8.60;;;;;;;3.47;100.00;100716.94;10540153;28;20052;-59
2021/12/09 12:51:10;;;;;;;10.63;7.18;;;;;;;3.51;100.00;100721.16;10540558;28;20052;-56
2021/12/09 12:56:12;;;;;;;9.57;7.85;;;;;;;3.35;100.00;100699.19;10540058;28;20059;-57
2021/12/09 13:01:18;;;;;;;11.60;8.45;;;;;;;3.47;100.00;100695.38;10539940;28;20048;-58
2021/12/09 13:06:50;;;;;;;12.05;8.82;;;;;;;3.34;100.00;100690.56;10539614;28;20040;-57
2021/12/09 13:11:59;;;;;;;15.13;9.60;;;;;;;3.60;100.00;100693.25;10540146;28;20048;-57
2021/12/09 13:22:08;;;;;;;11.05;8.68;;;;;;;3.47;100.00;100692.81;10543275;28;20054;-60
2021/12/09 13:33:09;;;;;;;13.60;9.05;;;;;;;3.56;100.00;100699.44;10547583;28;20571;-60
2021/12/09 13:49:34;;;;;;;12.90;8.70;;;;;;;3.49;100.00;100689.25;10547046;28;20044;-60
2021/12/09 13:54:36;;;;;;;10.88;8.90;;;;;;;3.45;100.00;100690.25;10545640;28;20499;-52
2021/12/09 13:59:39;;;;;;;13.95;9.02;;;;;;;3.54;100.00;100699.50;10546733;28;20075;-56
2021/12/09 14:04:41;;;;;;;18.38;10.00;;;;;;;3.43;100.00;100691.19;10545320;28;20051;-55
2021/12/09 14:09:59;;;;;;;15.30;9.48;;;;;;;3.43;100.00;100697.22;10546001;28;20054;-57
2021/12/09 14:15:07;;;;;;;11.52;9.77;;;;;;;3.41;100.00;100687.78;10545483;28;20044;-55
2021/12/09 14:20:18;;;;;;;15.70;9.95;;;;;;;3.45;100.00;100692.00;10544576;28;20404;-57
2021/12/09 14:25:31;;;;;;;13.93;8.05;;;;;;;3.58;100.00;100692.47;10545890;28;20044;-54
2021/12/09 14:30:33;;;;;;;15.82;10.02;;;;;;;3.70;100.00;100702.47;10544963;28;20051;-59
2021/12/09 14:35:47;;;;;;;16.08;10.25;;;;;;;3.47;100.00;100682.44;10544218;28;20070;-61
2021/12/09 14:40:54;;;;;;;13.68;9.30;;;;;;;3.44;100.00;100690.31;10545148;28;20052;-59
2021/12/09 14:46:01;;;;;;;15.30;10.50;;;;;;;3.41;100.00;100685.22;10544974;28;20059;-60
2021/12/09 14:51:18;;;;;;;13.20;11.05;;;;;;;3.41;100.00;100686.03;10544618;28;20085;-61
2021/12/09 14:56:27;;;;;;;15.75;11.32;;;;;;;3.51;100.00;100691.81;10543385;28;20048;-58
2021/12/09 15:01:34;;;;;;;14.93;11.80;;;;;;;3.49;100.00;100750.53;10542924;28;20058;-54
2021/12/09 15:06:39;;;;;;;18.92;12.05;;;;;;;3.38;100.00;100727.56;10543862;28;20052;-59
2021/12/09 15:11:53;;;;;;;18.67;13.30;;;;;;;3.38;100.00;100714.63;10543576;28;20047;-54
2021/12/09 15:17:06;;;;;;;22.50;12.80;;;;;;;3.51;100.00;100710.78;10543985;28;20408;-57
2021/12/09 15:22:18;;;;;;;19.40;14.80;;;;;;;3.28;100.00;100705.44;10543101;28;20055;-58
2021/12/09 15:27:20;;;;;;;23.90;15.68;;;;;;;3.27;100.00;100704.56;10543017;28;20047;-58
2021/12/09 15:32:23;;;;;;;21.60;15.88;;;;;;;3.30;100.00;100701.06;10542881;28;20044;-53
2021/12/09 15:37:26;;;;;;;24.23;15.65;;;;;;;3.18;100.00;100738.47;10543889;28;20060;-57
2021/12/09 15:42:28;;;;;;;33.63;16.60;;;;;;;3.22;100.00;100695.25;10542532;28;20044;-58
2021/12/09 15:47:33;;;;;;;24.58;18.77;;;;;;;3.13;100.00;100697.22;10541814;28;20048;-57
2021/12/09 15:52:44;;;;;;;22.45;17.00;;;;;;;3.25;100.00;100701.19;10542312;28;20051;-57
2021/12/09 15:57:48;;;;;;;26.20;15.82;;;;;;;3.41;100.00;100699.00;10540778;28;20052;-58
2021/12/09 16:02:52;;;;;;;28.67;16.17;;;;;;;3.31;100.00;100694.97;10541622;28;20056;-59
2021/12/09 16:07:54;;;;;;;26.98;18.02;;;;;;;3.19;100.00;100685.00;10541833;28;20058;-58
2021/12/09 16:12:56;;;;;;;24.05;17.50;;;;;;;3.31;100.00;100687.22;10541320;28;20048;-54
2021/12/09 16:18:27;;;;;;;24.30;17.70;;;;;;;3.19;100.00;100679.81;10541302;28;20464;-55
2021/12/09 16:23:30;;;;;;;37.72;18.85;;;;;;;3.20;100.00;100684.94;10541227;28;20048;-55
2021/12/09 16:28:33;;;;;;;23.70;17.70;;;;;;;3.15;100.00;100672.13;10540729;28;20385;-58
2021/12/09 16:33:37;;;;;;;28.88;18.95;;;;;;;3.19;100.00;100679.81;10540909;28;20040;-58
2021/12/09 16:38:42;;;;;;;24.85;17.40;;;;;;;3.23;100.00;100673.66;10540163;28;20474;-57
2021/12/09 16:43:44;;;;;;;26.40;17.67;;;;;;;3.28;100.00;100659.69;10540233;28;20055;-58
2021/12/09 16:48:47;;;;;;;30.13;18.40;;;;;;;3.33;100.00;100662.16;10539930;28;20051;-57
2021/12/09 16:53:53;;;;;;;25.73;17.92;;;;;;;3.11;100.00;100659.31;10539886;28;20039;-55
2021/12/09 16:58:59;;;;;;;28.08;18.58;;;;;;;3.08;100.00;100654.25;10539092;28;20044;-59
2021/12/09 17:04:04;;;;;;;30.23;20.00;;;;;;;3.07;100.00;100655.13;10539891;28;20051;-54
2021/12/09 17:09:07;;;;;;;34.88;20.38;;;;;;;3.12;100.00;100671.38;10539750;28;20475;-58
2021/12/09 17:14:10;;;;;;;31.48;18.90;;;;;;;3.46;100.00;100676.44;10539487;28;20487;-59
2021/12/09 17:19:14;;;;;;;28.63;18.27;;;;;;;3.40;100.00;100673.19;10539912;28;20048;-57
2021/12/09 17:24:16;;;;;;;34.88;18.90;;;;;;;3.52;100.00;100683.16;10539529;28;20040;-56
2021/12/09 17:29:19;;;;;;;31.90;16.92;;;;;;;3.49;100.00;100667.72;10539260;28;20514;-58
2021/12/09 17:34:26;;;;;;;35.13;20.50;;;;;;;3.56;100.00;100664.03;10539206;28;20044;-56
2021/12/09 17:39:28;;;;;;;36.55;19.70;;;;;;;3.78;100.00;100674.56;10539108;28;20056;-59
2021/12/09 17:44:33;;;;;;;23.55;16.15;;;;;;;3.77;100.00;100703.13;10539815;28;20055;-58
2021/12/09 17:49:42;;;;;;;28.00;16.70;;;;;;;3.70;100.00;100677.41;10539061;28;20048;-58
2021/12/09 17:54:45;;;;;;;29.95;17.20;;;;;;;3.79;100.00;100668.50;10537650;28;20055;-57
2021/12/09 17:59:47;;;;;;;25.50;14.90;;;;;;;3.82;100.00;100675.34;10539013;28;20063;-58
2021/12/09 18:04:53;;;;;;;29.40;17.35;;;;;;;3.79;100.00;100672.84;10538681;28;20113;-57
2021/12/09 18:09:56;;;;;;;33.10;19.23;;;;;;;3.74;100.00;100670.41;10544312;28;20044;-57
2021/12/09 18:15:00;;;;;;;40.70;20.15;;;;;;;3.76;100.00;100660.84;10546194;28;20044;-57
2021/12/09 18:20:08;;;;;;;29.25;15.95;;;;;;;3.97;100.00;100664.50;10546098;28;20048;-57
2021/12/09 18:25:12;;;;;;;38.67;21.60;;;;;;;3.84;100.00;100678.75;10544580;28;20044;-56
2021/12/09 18:30:28;;;;;;;41.50;19.75;;;;;;;3.84;100.00;100677.00;10545472;28;20044;-55
2021/12/09 18:35:33;;;;;;;39.72;19.23;;;;;;;3.87;100.00;100670.88;10545025;28;20408;-55
2021/12/09 18:40:39;;;;;;;37.97;19.98;;;;;;;3.84;100.00;100664.03;10545165;28;20052;-55
2021/12/09 18:45:41;;;;;;;31.85;19.42;;;;;;;3.81;100.00;100666.72;10545164;28;20048;-56
2021/12/09 18:50:47;;;;;;;42.60;21.05;;;;;;;3.86;100.00;100669.16;10543461;28;20048;-57
2021/12/09 18:55:52;;;;;;;38.13;22.08;;;;;;;3.84;100.00;100665.78;10545011;28;20059;-55
2021/12/09 19:00:56;;;;;;;42.22;20.58;;;;;;;3.78;100.00;100655.63;10543082;28;20048;-55
2021/12/09 19:05:59;;;;;;;41.45;20.85;;;;;;;3.82;100.00;100663.25;10544401;28;20044;-55
2021/12/09 19:11:05;;;;;;;34.03;21.00;;;;;;;3.90;100.00;100652.63;10543804;28;20051;-56
2021/12/09 19:16:09;;;;;;;43.38;22.63;;;;;;;3.76;100.00;100637.53;10544175;28;20044;-59
2021/12/09 19:21:14;;;;;;;37.38;22.77;;;;;;;3.76;100.00;100644.47;10542566;28;20048;-55
2021/12/09 19:26:17;;;;;;;38.05;23.55;;;;;;;3.79;100.00;100631.41;10543553;28;20056;-58
2021/12/09 19:31:19;;;;;;;33.58;21.42;;;;;;;3.76;100.00;100629.75;10542880;28;20058;-57
2021/12/09 19:36:22;;;;;;;51.85;24.05;;;;;;;3.75;100.00;100622.91;10542948;28;20112;-59
2021/12/09 19:41:27;;;;;;;41.65;23.33;;;;;;;3.81;100.00;100612.34;10542435;28;20048;-56
2021/12/09 19:46:29;;;;;;;41.15;22.48;;;;;;;3.79;100.00;100618.47;10542331;28;20381;-57
2021/12/09 19:51:32;;;;;;;35.45;22.85;;;;;;;3.78;100.00;100604.66;10541947;28;20071;-58
2021/12/09 19:56:35;;;;;;;30.67;18.35;;;;;;;3.91;100.00;100602.53;10542100;28;20055;-55
2021/12/09 20:01:38;;;;;;;38.20;23.38;;;;;;;3.96;100.00;100603.22;10540459;28;20050;-54
2021/12/09 20:06:41;;;;;;;41.88;22.95;;;;;;;3.84;100.00;100598.44;10541721;28;20054;-59
2021/12/09 20:11:44;;;;;;;32.15;20.58;;;;;;;3.90;100.00;100587.88;10541199;28;20415;-55
2021/12/09 20:16:48;;;;;;;43.90;21.92;;;;;;;3.82;100.00;100580.38;10541175;28;20074;-57
2021/12/09 20:21:50;;;;;;;37.55;22.02;;;;;;;3.82;100.00;100566.59;10540729;28;20480;-53
2021/12/09 20:26:53;;;;;;;34.60;19.52;;;;;;;3.81;100.00;100563.13;10540742;28;20048;-55
2021/12/09 20:31:56;;;;;;;37.03;19.25;;;;;;;3.71;100.00;100552.22;10539476;28;20044;-57
2021/12/09 20:36:58;;;;;;;46.90;19.30;;;;;;;3.80;100.00;100545.91;10540609;28;20407;-55
2021/12/09 20:42:01;;;;;;;32.83;19.10;;;;;;;3.72;100.00;100540.13;10540195;28;20063;-56
2021/12/09 20:47:05;;;;;;;30.45;18.73;;;;;;;3.84;100.00;100534.53;10540234;28;20052;-59
2021/12/09 20:52:07;;;;;;;34.05;17.23;;;;;;;3.83;100.00;100524.22;10540478;28;20054;-57
2021/12/09 20:57:10;;;;;;;35.22;17.48;;;;;;;3.92;100.00;100526.53;10540190;28;20055;-57
2021/12/09 21:02:12;;;;;;;36.97;17.67;;;;;;;3.89;100.00;100517.09;10539800;28;20055;-56
2021/12/09 21:07:15;;;;;;;27.50;15.98;;;;;;;4.00;100.00;100510.69;10539867;28;20098;-55
2021/12/09 21:12:20;;;;;;;32.42;17.45;;;;;;;3.98;100.00;100499.56;10538320;28;20048;-55
2021/12/09 21:17:23;;;;;;;29.50;16.23;;;;;;;4.03;100.00;100497.66;10540173;28;20048;-56
2021/12/09 21:22:25;;;;;;;34.28;17.65;;;;;;;3.98;100.00;100486.59;10539477;28;20048;-57
2021/12/09 21:27:28;;;;;;;25.70;15.20;;;;;;;4.05;100.00;100490.66;10539846;28;20056;-57
2021/12/09 21:32:30;;;;;;;29.48;16.25;;;;;;;4.05;100.00;100488.06;10539113;28;20051;-57
2021/12/09 21:37:32;;;;;;;53.47;16.25;;;;;;;4.06;100.00;100474.22;10539084;28;20044;-57
2021/12/09 21:42:35;;;;;;;24.35;13.93;;;;;;;4.09;100.00;100466.34;10541802;28;20048;-58
2021/12/09 21:47:38;;;;;;;28.90;13.98;;;;;;;3.98;100.00;100458.09;10547253;28;20052;-56
2021/12/09 21:52:41;;;;;;;27.95;13.90;;;;;;;4.07;100.00;100450.84;10546796;28;20067;-56
2021/12/09 21:57:45;;;;;;;33.85;14.45;;;;;;;3.88;100.00;100434.25;10546745;28;20457;-56
2021/12/09 22:02:48;;;;;;;23.92;11.73;;;;;;;3.95;100.00;100429.72;10545721;28;20054;-58
2021/12/09 22:07:51;;;;;;;25.25;13.77;;;;;;;3.91;100.00;100421.22;10546333;28;20044;-55
2021/12/09 22:12:55;;;;;;;23.58;11.80;;;;;;;3.99;100.00;100419.19;10544907;28;20050;-58
2021/12/09 22:17:58;;;;;;;27.40;12.85;;;;;;;3.87;100.00;100407.53;10546417;28;20059;-56
2021/12/09 22:23:01;;;;;;;31.67;14.23;;;;;;;3.77;100.00;100392.38;10545796;28;20044;-59
2021/12/09 22:28:03;;;;;;;28.00;13.63;;;;;;;3.82;100.00;100390.47;10546012;28;20054;-56
2021/12/09 22:33:05;;;;;;;21.05;12.85;;;;;;;3.79;100.00;100381.06;10545358;28;20040;-56
2021/12/09 22:38:08;;;;;;;20.95;12.18;;;;;;;3.82;100.00;100375.78;10545294;28;20059;-59
2021/12/09 22:43:10;;;;;;;29.70;12.75;;;;;;;3.97;100.00;100376.97;10545055;28;20044;-57
2021/12/09 22:48:15;;;;;;;24.77;11.70;;;;;;;3.91;100.00;100372.00;10543770;28;20044;-58
2021/12/09 22:53:18;;;;;;;23.75;11.15;;;;;;;3.78;100.00;100337.94;10543952;28;20058;-58
2021/12/09 22:58:22;;;;;;;22.88;11.45;;;;;;;3.89;100.00;100340.97;10544601;28;20051;-59
2021/12/09 23:03:28;;;;;;;20.42;12.10;;;;;;;3.77;100.00;100328.47;10545039;28;20048;-56
2021/12/09 23:08:35;;;;;;;26.35;11.18;;;;;;;3.75;100.00;100311.31;10544129;28;20059;-57
2021/12/09 23:13:41;;;;;;;28.25;11.70;;;;;;;3.74;100.00;100294.09;10543732;28;20504;-55
2021/12/09 23:18:44;;;;;;;24.63;12.35;;;;;;;3.57;100.00;100285.19;10542835;28;20086;-56
2021/12/09 23:23:47;;;;;;;21.58;12.07;;;;;;;3.42;100.00;100267.66;10543743;28;20044;-57
2021/12/09 23:28:49;;;;;;;20.88;11.48;;;;;;;3.39;100.00;100258.22;10543405;28;20055;-57
2021/12/09 23:33:53;;;;;;;19.90;12.75;;;;;;;3.28;100.00;100239.69;10543442;28;20060;-56
2021/12/09 23:38:56;;;;;;;21.00;11.10;;;;;;;3.28;100.00;100231.91;10543105;28;20059;-53
2021/12/09 23:43:59;;;;;;;26.38;11.75;;;;;;;3.25;100.00;100219.09;10542347;28;20488;-57
2021/12/09 23:49:10;;;;;;;28.67;12.95;;;;;;;3.15;100.00;100210.81;10542780;28;20089;-58
2021/12/09 23:54:14;;;;;;;27.05;13.43;;;;;;;3.08;100.00;100201.59;10541742;28;20048;-52
2021/12/09 23:59:17;;;;;;;31.83;13.98;;;;;;;2.89;100.00;100185.88;10542108;28;20075;-55
